Time;durP1;ratioP1;P1;durP2;ratioP2;P2;SDS_P1;SDS_P2;PMS_P1;PMS_P2;Temp;Humidity;BMP_temperature;BMP_pressure;BME280_temperature;BME280_humidity;BME280_pressure;Samples;Min_cycle;Max_cycle;Signal;HPM_P1;HPM_P2
2022/10/28 00:01:33;;;;;;;;;;;;;;;;;;4962919;28;20457;-53
2022/10/28 00:03:59;;;;;;;;;;;;;;;;;;4965876;28;19918;-54
2022/10/28 00:06:26;;;;;;;;;;;;;;;;;;4962280;28;19924;-54
2022/10/28 00:08:52;;;;;;;;;;;;;;;;;;4970069;28;19961;-54
2022/10/28 00:11:19;;;;;;;;;;;;;;;;;;4960760;28;19949;-54
2022/10/28 00:13:45;;;;;;;;;;;;;;;;;;4964088;28;19926;-54
2022/10/28 00:16:11;;;;;;;;;;;;;;;;;;4963126;28;19922;-54
2022/10/28 00:18:37;;;;;;;;;;;;;;;;;;4963817;28;19918;-54
2022/10/28 00:21:04;;;;;;;;;;;;;;;;;;4963193;28;19973;-54
2022/10/28 00:23:30;;;;;;;;;;;;;;;;;;4958773;28;19918;-54
2022/10/28 00:26:02;;;;;;;;;;;;;;;;;;4955289;28;19955;-54
2022/10/28 00:28:27;;;;;;;;;;;;;;;;;;4955466;28;20342;-54
2022/10/28 00:30:52;;;;;;;;;;;;;;;;;;4960351;28;19921;-53
2022/10/28 00:33:18;;;;;;;;;;;;;;;;;;4961326;28;19919;-54
2022/10/28 00:35:43;;;;;;;;;;;;;;;;;;4963922;28;19960;-54
2022/10/28 00:38:08;;;;;;;;;;;;;;;;;;4969406;28;19922;-54
2022/10/28 00:40:34;;;;;;;;;;;;;;;;;;4966148;28;19922;-54
2022/10/28 00:42:59;;;;;;;;;;;;;;;;;;4963467;28;19918;-54
2022/10/28 00:45:25;;;;;;;;;;;;;;;;;;4960872;28;19926;-54
2022/10/28 00:47:55;;;;;;;;;;;;;;;;;;4960624;28;20424;-54
2022/10/28 00:50:42;;;;;;;;;;;;;;;;;;4966426;28;19981;-54
2022/10/28 00:53:27;;;;;;;;;;;;;;;;;;4960547;28;20349;-54
2022/10/28 00:55:54;;;;;;;;;;;;;;;;;;4962441;28;20292;-51
2022/10/28 00:58:21;;;;;;;;;;;;;;;;;;4967916;28;19918;-54
2022/10/28 01:00:47;;;;;;;;;;;;;;;;;;4967484;28;19922;-54
2022/10/28 01:03:12;;;;;;;;;;;;;;;;;;4967673;28;19929;-54
2022/10/28 01:05:39;;;;;;;;;;;;;;;;;;4961104;28;19918;-54
2022/10/28 01:08:05;;;;;;;;;;;;;;;;;;4963044;28;19928;-54
2022/10/28 01:10:43;;;;;;;;;;;;;;;;;;4964111;28;19919;-54
2022/10/28 01:13:10;;;;;;;;;;;;;;;;;;4956836;28;20009;-54
2022/10/28 01:15:38;;;;;;;;;;;;;;;;;;4956030;28;19922;-54
2022/10/28 01:18:10;;;;;;;;;;;;;;;;;;4953212;28;19941;-53
2022/10/28 01:20:42;;;;;;;;;;;;;;;;;;4966337;28;19933;-53
2022/10/28 01:23:10;;;;;;;;;;;;;;;;;;4961632;28;19961;-54
2022/10/28 01:25:38;;;;;;;;;;;;;;;;;;4958664;28;19967;-54
2022/10/28 01:28:03;;;;;;;;;;;;;;;;;;4962212;28;19918;-52
2022/10/28 01:30:37;;;;;;;;;;;;;;;;;;4962633;28;19932;-54
2022/10/28 01:33:11;;;;;;;;;;;;;;;;;;4956952;28;19927;-54
2022/10/28 01:35:51;;;;;;;;;;;;;;;;;;4959654;28;19919;-54
2022/10/28 01:38:20;;;;;;;;;;;;;;;;;;4957346;28;19928;-54
2022/10/28 01:40:54;;;;;;;;;;;;;;;;;;4958062;28;19926;-54
2022/10/28 01:43:31;;;;;;;;;;;;;;;;;;4954568;28;20004;-54
2022/10/28 01:46:03;;;;;;;;;;;;;;;;;;4961761;28;19924;-53
2022/10/28 01:48:33;;;;;;;;;;;;;;;;;;4956874;28;19922;-54
2022/10/28 01:51:03;;;;;;;;;;;;;;;;;;4966775;28;19926;-55
2022/10/28 01:53:32;;;;;;;;;;;;;;;;;;4965420;28;20021;-54
2022/10/28 01:55:59;;;;;;;;;;;;;;;;;;4973575;28;19922;-54
2022/10/28 01:58:27;;;;;;;;;;;;;;;;;;4959592;28;20454;-54
2022/10/28 02:00:53;;;;;;;;;;;;;;;;;;4959492;28;19930;-54
2022/10/28 02:03:18;;;;;;;;;;;;;;;;;;4960388;28;19918;-54
2022/10/28 02:05:45;;;;;;;;;;;;;;;;;;4963461;28;20346;-54
2022/10/28 02:08:16;;;;;;;;;;;;;;;;;;4958121;28;19959;-53
2022/10/28 02:10:47;;;;;;;;;;;;;;;;;;4959022;28;19918;-54
2022/10/28 02:13:13;;;;;;;;;;;;;;;;;;4956831;28;19918;-54
2022/10/28 02:15:38;;;;;;;;;;;;;;;;;;4954242;28;19922;-54
2022/10/28 02:18:12;;;;;;;;;;;;;;;;;;4964326;28;19918;-54
2022/10/28 02:20:50;;;;;;;;;;;;;;;;;;4959018;28;20407;-53
2022/10/28 02:23:30;;;;;;;;;;;;;;;;;;4958950;28;20013;-54
2022/10/28 02:26:16;;;;;;;;;;;;;;;;;;4955921;28;20005;-51
2022/10/28 02:28:41;;;;;;;;;;;;;;;;;;4955742;28;19918;-54
2022/10/28 02:31:15;;;;;;;;;;;;;;;;;;4963097;28;19914;-53
2022/10/28 02:33:41;;;;;;;;;;;;;;;;;;4962849;28;19918;-53
2022/10/28 02:36:09;;;;;;;;;;;;;;;;;;4962950;28;19914;-53
2022/10/28 02:39:01;;;;;;;;;;;;;;;;;;4959428;28;19972;-53
2022/10/28 02:41:35;;;;;;;;;;;;;;;;;;4967933;28;19929;-53
2022/10/28 02:44:04;;;;;;;;;;;;;;;;;;4965366;28;19986;-54
2022/10/28 02:46:31;;;;;;;;;;;;;;;;;;4959090;28;19919;-53
2022/10/28 02:49:00;;;;;;;;;;;;;;;;;;4964047;28;19921;-53
2022/10/28 02:51:28;;;;;;;;;;;;;;;;;;4969694;28;19926;-54
2022/10/28 02:54:04;;;;;;;;;;;;;;;;;;4964858;28;19957;-54
2022/10/28 02:56:33;;;;;;;;;;;;;;;;;;4963955;28;20001;-53
2022/10/28 02:58:59;;;;;;;;;;;;;;;;;;4961157;28;20012;-53
2022/10/28 03:01:24;;;;;;;;;;;;;;;;;;4962789;28;20009;-53
2022/10/28 03:03:49;;;;;;;;;;;;;;;;;;4964626;28;20380;-54
2022/10/28 03:06:14;;;;;;;;;;;;;;;;;;4962118;28;19930;-53
2022/10/28 03:08:40;;;;;;;;;;;;;;;;;;4960632;28;20286;-53
2022/10/28 03:11:05;;;;;;;;;;;;;;;;;;4955866;28;20439;-54
2022/10/28 03:13:30;;;;;;;;;;;;;;;;;;4957392;28;19919;-54
2022/10/28 03:15:55;;;;;;;;;;;;;;;;;;4956087;28;19944;-54
2022/10/28 03:18:21;;;;;;;;;;;;;;;;;;4959148;28;20009;-54
2022/10/28 03:20:46;;;;;;;;;;;;;;;;;;4959838;28;19946;-54
2022/10/28 03:23:11;;;;;;;;;;;;;;;;;;4960530;28;19921;-54
2022/10/28 03:25:37;;;;;;;;;;;;;;;;;;4955842;28;19918;-54
2022/10/28 03:28:02;;;;;;;;;;;;;;;;;;4952886;28;19937;-53
2022/10/28 03:30:27;;;;;;;;;;;;;;;;;;4958016;28;19921;-54
2022/10/28 03:32:52;;;;;;;;;;;;;;;;;;4964317;28;19947;-53
2022/10/28 03:35:18;;;;;;;;;;;;;;;;;;4959428;28;19962;-54
2022/10/28 03:37:43;;;;;;;;;;;;;;;;;;4964411;28;19936;-54
2022/10/28 03:40:09;;;;;;;;;;;;;;;;;;4962332;28;19923;-54
2022/10/28 03:42:34;;;;;;;;;;;;;;;;;;4963824;28;19914;-54
2022/10/28 03:44:59;;;;;;;;;;;;;;;;;;4963504;28;20192;-53
2022/10/28 03:47:25;;;;;;;;;;;;;;;;;;4964058;28;20245;-53
2022/10/28 03:49:50;;;;;;;;;;;;;;;;;;4964325;28;19954;-53
2022/10/28 03:52:15;;;;;;;;;;;;;;;;;;4962152;28;19971;-52
2022/10/28 03:54:40;;;;;;;;;;;;;;;;;;4966481;28;19915;-53
2022/10/28 03:57:06;;;;;;;;;;;;;;;;;;4958099;28;19926;-54
2022/10/28 03:59:31;;;;;;;;;;;;;;;;;;4961836;28;19963;-53
2022/10/28 04:01:56;;;;;;;;;;;;;;;;;;4961790;28;19933;-54
2022/10/28 04:04:21;;;;;;;;;;;;;;;;;;4962033;28;19992;-54
2022/10/28 04:06:47;;;;;;;;;;;;;;;;;;4959706;28;19925;-54
2022/10/28 04:09:12;;;;;;;;;;;;;;;;;;4961436;28;20395;-54
2022/10/28 04:11:37;;;;;;;;;;;;;;;;;;4961075;28;20289;-54
2022/10/28 04:14:04;;;;;;;;;;;;;;;;;;4962447;28;20410;-54
2022/10/28 04:16:29;;;;;;;;;;;;;;;;;;4963369;28;19960;-55
2022/10/28 04:18:55;;;;;;;;;;;;;;;;;;4959522;28;19922;-54
2022/10/28 04:21:20;;;;;;;;;;;;;;;;;;4957750;28;19958;-54
2022/10/28 04:23:45;;;;;;;;;;;;;;;;;;4958082;28;19918;-54
2022/10/28 04:26:11;;;;;;;;;;;;;;;;;;4959676;28;19918;-53
2022/10/28 04:28:36;;;;;;;;;;;;;;;;;;4962947;28;19980;-54
2022/10/28 04:31:01;;;;;;;;;;;;;;;;;;4958762;28;19918;-54
2022/10/28 04:33:27;;;;;;;;;;;;;;;;;;4962943;28;20333;-54
2022/10/28 04:35:52;;;;;;;;;;;;;;;;;;4967570;28;20056;-53
2022/10/28 04:38:17;;;;;;;;;;;;;;;;;;4959572;28;19918;-54
2022/10/28 04:40:45;;;;;;;;;;;;;;;;;;4973838;28;19922;-55
2022/10/28 04:43:10;;;;;;;;;;;;;;;;;;4958848;28;20366;-54
2022/10/28 04:45:36;;;;;;;;;;;;;;;;;;4956029;28;19961;-54
2022/10/28 04:48:02;;;;;;;;;;;;;;;;;;4970347;28;19918;-54
2022/10/28 04:50:27;;;;;;;;;;;;;;;;;;4964585;28;20406;-54
2022/10/28 04:52:52;;;;;;;;;;;;;;;;;;4977557;28;19919;-54
2022/10/28 04:55:18;;;;;;;;;;;;;;;;;;4959532;28;19918;-54
2022/10/28 04:57:44;;;;;;;;;;;;;;;;;;4980613;28;19926;-56
2022/10/28 05:00:09;;;;;;;;;;;;;;;;;;4962467;28;19918;-53
2022/10/28 05:02:34;;;;;;;;;;;;;;;;;;4964145;28;19991;-54
2022/10/28 05:05:02;;;;;;;;;;;;;;;;;;4968930;28;19971;-56
2022/10/28 05:07:27;;;;;;;;;;;;;;;;;;4960757;28;20358;-57
2022/10/28 05:09:52;;;;;;;;;;;;;;;;;;4965140;28;20011;-57
2022/10/28 05:12:18;;;;;;;;;;;;;;;;;;4959737;28;19918;-53
2022/10/28 05:14:43;;;;;;;;;;;;;;;;;;4964745;28;19918;-53
2022/10/28 05:17:09;;;;;;;;;;;;;;;;;;4966743;28;20414;-56
2022/10/28 05:19:34;;;;;;;;;;;;;;;;;;4966078;28;19914;-57
2022/10/28 05:21:59;;;;;;;;;;;;;;;;;;4955734;28;19918;-57
2022/10/28 05:24:24;;;;;;;;;;;;;;;;;;4963741;28;19922;-59
2022/10/28 05:26:50;;;;;;;;;;;;;;;;;;4959459;28;19924;-57
2022/10/28 05:29:17;;;;;;;;;;;;;;;;;;4959691;28;20000;-57
2022/10/28 05:31:42;;;;;;;;;;;;;;;;;;4967540;28;19925;-57
2022/10/28 05:34:07;;;;;;;;;;;;;;;;;;4967871;28;20337;-57
2022/10/28 05:36:32;;;;;;;;;;;;;;;;;;4965928;28;19918;-57
2022/10/28 05:38:58;;;;;;;;;;;;;;;;;;4966010;28;19964;-57
2022/10/28 05:41:23;;;;;;;;;;;;;;;;;;4960743;28;19922;-57
2022/10/28 05:43:49;;;;;;;;;;;;;;;;;;4965947;28;19918;-57
2022/10/28 05:46:15;;;;;;;;;;;;;;;;;;4968549;28;20003;-57
2022/10/28 05:48:40;;;;;;;;;;;;;;;;;;4964693;28;20052;-57
2022/10/28 05:51:05;;;;;;;;;;;;;;;;;;4958570;28;20399;-57
2022/10/28 05:53:31;;;;;;;;;;;;;;;;;;4962470;28;20011;-57
2022/10/28 05:55:56;;;;;;;;;;;;;;;;;;4963985;28;19956;-57
2022/10/28 05:58:21;;;;;;;;;;;;;;;;;;4961436;28;19918;-57
2022/10/28 06:00:46;;;;;;;;;;;;;;;;;;4961897;28;19922;-57
2022/10/28 06:03:12;;;;;;;;;;;;;;;;;;4960479;28;20500;-57
2022/10/28 06:05:42;;;;;;;;;;;;;;;;;;4960676;28;19925;-57
2022/10/28 06:08:07;;;;;;;;;;;;;;;;;;4964469;28;19918;-57
2022/10/28 06:10:32;;;;;;;;;;;;;;;;;;4964805;28;20415;-57
2022/10/28 06:12:58;;;;;;;;;;;;;;;;;;4962324;28;19918;-57
2022/10/28 06:15:23;;;;;;;;;;;;;;;;;;4955540;28;19926;-57
2022/10/28 06:17:49;;;;;;;;;;;;;;;;;;4957322;28;19918;-57
2022/10/28 06:20:14;;;;;;;;;;;;;;;;;;4958869;28;19922;-57
2022/10/28 06:22:48;;;;;;;;;;;;;;;;;;4958958;28;19918;-57
2022/10/28 06:25:14;;;;;;;;;;;;;;;;;;4953579;28;19927;-57
2022/10/28 06:27:39;;;;;;;;;;;;;;;;;;4963479;28;19925;-57
2022/10/28 06:30:05;;;;;;;;;;;;;;;;;;4965800;28;19922;-57
2022/10/28 06:32:30;;;;;;;;;;;;;;;;;;4960038;28;19926;-57
2022/10/28 06:34:55;;;;;;;;;;;;;;;;;;4962052;28;20280;-57
2022/10/28 06:37:20;;;;;;;;;;;;;;;;;;4968476;28;19971;-57
2022/10/28 06:39:50;;;;;;;;;;;;;;;;;;4962234;28;19933;-57
2022/10/28 06:42:15;;;;;;;;;;;;;;;;;;4964794;28;19919;-57
2022/10/28 06:44:40;;;;;;;;;;;;;;;;;;4962975;28;19918;-57
2022/10/28 06:47:06;;;;;;;;;;;;;;;;;;4966453;28;19933;-57
2022/10/28 06:49:31;;;;;;;;;;;;;;;;;;4966981;28;19965;-57
2022/10/28 06:51:56;;;;;;;;;;;;;;;;;;4961477;28;19929;-57
2022/10/28 06:54:21;;;;;;;;;;;;;;;;;;4961560;28;19925;-57
2022/10/28 06:56:47;;;;;;;;;;;;;;;;;;4960307;28;19926;-57
2022/10/28 06:59:12;;;;;;;;;;;;;;;;;;4952458;28;19926;-57
2022/10/28 07:01:37;;;;;;;;;;;;;;;;;;4949786;28;20390;-57
2022/10/28 07:04:03;;;;;;;;;;;;;;;;;;4952393;28;19938;-57
2022/10/28 07:06:28;;;;;;;;;;;;;;;;;;4951979;28;19933;-57
2022/10/28 07:08:53;;;;;;;;;;;;;;;;;;4962570;28;19933;-57
2022/10/28 07:11:18;;;;;;;;;;;;;;;;;;4961876;28;19922;-57
2022/10/28 07:13:44;;;;;;;;;;;;;;;;;;4964919;28;19919;-58
2022/10/28 07:16:09;;;;;;;;;;;;;;;;;;4959263;28;20465;-57
2022/10/28 07:18:34;;;;;;;;;;;;;;;;;;4962504;28;19933;-57
2022/10/28 07:21:00;;;;;;;;;;;;;;;;;;4962121;28;19922;-57
2022/10/28 07:23:25;;;;;;;;;;;;;;;;;;4955867;28;20350;-57
2022/10/28 07:25:54;;;;;;;;;;;;;;;;;;4969354;28;20364;-57
2022/10/28 07:28:20;;;;;;;;;;;;;;;;;;4976562;28;19925;-57
2022/10/28 07:30:45;;;;;;;;;;;;;;;;;;4966648;28;20040;-57
2022/10/28 07:33:11;;;;;;;;;;;;;;;;;;4967798;28;19961;-57
2022/10/28 07:35:36;;;;;;;;;;;;;;;;;;4964808;28;19932;-57
2022/10/28 07:38:01;;;;;;;;;;;;;;;;;;4963975;28;19919;-57
2022/10/28 07:40:27;;;;;;;;;;;;;;;;;;4964132;28;19926;-57
2022/10/28 07:42:52;;;;;;;;;;;;;;;;;;4967192;28;19922;-57
2022/10/28 07:45:17;;;;;;;;;;;;;;;;;;4961180;28;20407;-57
2022/10/28 07:47:43;;;;;;;;;;;;;;;;;;4960947;28;20138;-57
2022/10/28 07:50:09;;;;;;;;;;;;;;;;;;4963741;28;20119;-57
2022/10/28 07:52:34;;;;;;;;;;;;;;;;;;4958574;28;19918;-57
2022/10/28 07:55:00;;;;;;;;;;;;;;;;;;4962753;28;19918;-56
2022/10/28 07:57:25;;;;;;;;;;;;;;;;;;4959482;28;19929;-57
2022/10/28 07:59:50;;;;;;;;;;;;;;;;;;4961527;28;19926;-57
2022/10/28 08:02:17;;;;;;;;;;;;;;;;;;4959470;28;19922;-57
2022/10/28 08:04:43;;;;;;;;;;;;;;;;;;4960018;28;20040;-57
2022/10/28 08:07:09;;;;;;;;;;;;;;;;;;4962248;28;20324;-57
2022/10/28 08:09:34;;;;;;;;;;;;;;;;;;4960062;28;20002;-57
2022/10/28 08:11:59;;;;;;;;;;;;;;;;;;4959450;28;19918;-57
2022/10/28 08:14:25;;;;;;;;;;;;;;;;;;4956707;28;19923;-57
2022/10/28 08:16:50;;;;;;;;;;;;;;;;;;4960788;28;19919;-57
2022/10/28 08:19:15;;;;;;;;;;;;;;;;;;4958948;28;20399;-57
2022/10/28 08:21:41;;;;;;;;;;;;;;;;;;4967359;28;19922;-57
2022/10/28 08:24:06;;;;;;;;;;;;;;;;;;4962518;28;19938;-57
2022/10/28 08:26:31;;;;;;;;;;;;;;;;;;4961443;28;20303;-57
2022/10/28 08:28:57;;;;;;;;;;;;;;;;;;4969372;28;20459;-57
2022/10/28 08:31:22;;;;;;;;;;;;;;;;;;4970435;28;19920;-56
2022/10/28 08:33:47;;;;;;;;;;;;;;;;;;4970151;28;19924;-57
2022/10/28 08:36:14;;;;;;;;;;;;;;;;;;4969931;28;19964;-57
2022/10/28 08:38:39;;;;;;;;;;;;;;;;;;4967783;28;20005;-57
2022/10/28 08:41:07;;;;;;;;;;;;;;;;;;4969968;28;20222;-57
2022/10/28 08:43:39;;;;;;;;;;;;;;;;;;4968574;28;20294;-57
2022/10/28 08:46:07;;;;;;;;;;;;;;;;;;4968105;28;19914;-57
2022/10/28 08:48:35;;;;;;;;;;;;;;;;;;4965361;28;19922;-57
2022/10/28 08:51:21;;;;;;;;;;;;;;;;;;4967133;28;19958;-57
2022/10/28 08:53:50;;;;;;;;;;;;;;;;;;4965421;28;19921;-58
2022/10/28 08:56:21;;;;;;;;;;;;;;;;;;4964499;28;19914;-57
2022/10/28 08:58:48;;;;;;;;;;;;;;;;;;4969476;28;20391;-57
2022/10/28 09:01:30;;;;;;;;;;;;;;;;;;4969984;28;19946;-57
2022/10/28 09:03:57;;;;;;;;;;;;;;;;;;4963859;28;19926;-56
2022/10/28 09:06:22;;;;;;;;;;;;;;;;;;4959728;28;20299;-57
2022/10/28 09:08:48;;;;;;;;;;;;;;;;;;4965009;28;19922;-57
2022/10/28 09:11:20;;;;;;;;;;;;;;;;;;4966352;28;19925;-57
2022/10/28 09:13:45;;;;;;;;;;;;;;;;;;4966172;28;19922;-58
2022/10/28 09:16:19;;;;;;;;;;;;;;;;;;4965482;28;19922;-57
2022/10/28 09:18:45;;;;;;;;;;;;;;;;;;4965783;28;19924;-58
2022/10/28 09:21:19;;;;;;;;;;;;;;;;;;4963974;28;19926;-57
2022/10/28 09:23:48;;;;;;;;;;;;;;;;;;4964190;28;20008;-57
2022/10/28 09:26:14;;;;;;;;;;;;;;;;;;4969362;28;19918;-56
2022/10/28 09:28:49;;;;;;;;;;;;;;;;;;4969041;28;20326;-58
2022/10/28 09:31:17;;;;;;;;;;;;;;;;;;4969438;28;19918;-57
2022/10/28 09:33:50;;;;;;;;;;;;;;;;;;4965135;28;19918;-58
2022/10/28 09:36:21;;;;;;;;;;;;;;;;;;4968756;28;19932;-58
2022/10/28 09:38:50;;;;;;;;;;;;;;;;;;4967562;28;19918;-58
2022/10/28 09:41:18;;;;;;;;;;;;;;;;;;4968148;28;19937;-57
2022/10/28 09:43:49;;;;;;;;;;;;;;;;;;4966324;28;19958;-58
2022/10/28 09:46:15;;;;;;;;;;;;;;;;;;4966861;28;19922;-58
2022/10/28 09:48:42;;;;;;;;;;;;;;;;;;4967803;28;19918;-58
2022/10/28 09:51:22;;;;;;;;;;;;;;;;;;4967684;28;19918;-56
2022/10/28 09:53:53;;;;;;;;;;;;;;;;;;4966669;28;20167;-57
2022/10/28 09:56:19;;;;;;;;;;;;;;;;;;4966002;28;20380;-57
2022/10/28 09:58:47;;;;;;;;;;;;;;;;;;4964422;28;19918;-57
2022/10/28 10:01:14;;;;;;;;;;;;;;;;;;4964961;28;20277;-57
2022/10/28 10:03:40;;;;;;;;;;;;;;;;;;4965145;28;19925;-57
2022/10/28 10:06:22;;;;;;;;;;;;;;;;;;4968157;28;19967;-57
2022/10/28 10:08:47;;;;;;;;;;;;;;;;;;4965623;28;20276;-57
2022/10/28 10:11:19;;;;;;;;;;;;;;;;;;4965676;28;19926;-57
2022/10/28 10:13:44;;;;;;;;;;;;;;;;;;4966293;28;19918;-57
2022/10/28 10:16:16;;;;;;;;;;;;;;;;;;4963059;28;19925;-57
2022/10/28 10:18:47;;;;;;;;;;;;;;;;;;4959613;28;20021;-57
2022/10/28 10:21:13;;;;;;;;;;;;;;;;;;4964218;28;19929;-58
2022/10/28 10:23:38;;;;;;;;;;;;;;;;;;4967325;28;19941;-57
2022/10/28 10:26:08;;;;;;;;;;;;;;;;;;4969369;28;20387;-57
2022/10/28 10:28:43;;;;;;;;;;;;;;;;;;4967812;28;20371;-57
2022/10/28 10:31:15;;;;;;;;;;;;;;;;;;4966165;28;19918;-57
2022/10/28 10:33:40;;;;;;;;;;;;;;;;;;4966793;28;19926;-58
2022/10/28 10:36:08;;;;;;;;;;;;;;;;;;4966274;28;20294;-57
2022/10/28 10:38:34;;;;;;;;;;;;;;;;;;4962944;28;20516;-57
2022/10/28 10:41:00;;;;;;;;;;;;;;;;;;4964429;28;19922;-57
2022/10/28 10:43:28;;;;;;;;;;;;;;;;;;4965942;28;19918;-57
2022/10/28 10:45:59;;;;;;;;;;;;;;;;;;4962660;28;19926;-57
2022/10/28 10:48:25;;;;;;;;;;;;;;;;;;4964769;28;20380;-57
2022/10/28 10:50:51;;;;;;;;;;;;;;;;;;4966053;28;19924;-57
2022/10/28 10:53:30;;;;;;;;;;;;;;;;;;4963611;28;19925;-58
2022/10/28 10:56:00;;;;;;;;;;;;;;;;;;4959991;28;19918;-58
2022/10/28 10:58:32;;;;;;;;;;;;;;;;;;4961974;28;19923;-58
2022/10/28 11:00:59;;;;;;;;;;;;;;;;;;4967883;28;19965;-58
2022/10/28 11:03:35;;;;;;;;;;;;;;;;;;4966402;28;19919;-58
2022/10/28 11:06:01;;;;;;;;;;;;;;;;;;4964472;28;20334;-58
2022/10/28 11:08:32;;;;;;;;;;;;;;;;;;4960782;28;19976;-58
2022/10/28 11:11:09;;;;;;;;;;;;;;;;;;4956857;28;19963;-58
2022/10/28 11:13:35;;;;;;;;;;;;;;;;;;4963372;28;20402;-57
2022/10/28 11:16:19;;;;;;;;;;;;;;;;;;4959211;28;20005;-58
2022/10/28 11:18:45;;;;;;;;;;;;;;;;;;4962748;28;19979;-58
2022/10/28 11:21:11;;;;;;;;;;;;;;;;;;4968272;28;19933;-58
2022/10/28 11:23:48;;;;;;;;;;;;;;;;;;4967754;28;19918;-58
2022/10/28 11:26:15;;;;;;;;;;;;;;;;;;4968038;28;19925;-58
2022/10/28 11:28:41;;;;;;;;;;;;;;;;;;4970790;28;19957;-58
2022/10/28 11:31:25;;;;;;;;;;;;;;;;;;4967517;28;19918;-58
2022/10/28 11:34:13;;;;;;;;;;;;;;;;;;4966777;28;19960;-58
2022/10/28 11:36:38;;;;;;;;;;;;;;;;;;4963684;28;19918;-58
2022/10/28 11:39:03;;;;;;;;;;;;;;;;;;4968560;28;19924;-57
2022/10/28 11:41:41;;;;;;;;;;;;;;;;;;4964641;28;20021;-57
2022/10/28 11:44:26;;;;;;;;;;;;;;;;;;4966107;28;19980;-57
2022/10/28 11:47:07;;;;;;;;;;;;;;;;;;4946796;28;19953;-57
2022/10/28 11:49:32;;;;;;;;;;;;;;;;;;4961171;28;19919;-57
2022/10/28 11:52:16;;;;;;;;;;;;;;;;;;4961569;28;19922;-57
2022/10/28 11:54:44;;;;;;;;;;;;;;;;;;4964105;28;19928;-57
2022/10/28 11:57:14;;;;;;;;;;;;;;;;;;4966173;28;19927;-57
2022/10/28 11:59:58;;;;;;;;;;;;;;;;;;4968509;28;20395;-57
2022/10/28 12:02:40;;;;;;;;;;;;;;;;;;4967610;28;20072;-57
2022/10/28 12:05:24;;;;;;;;;;;;;;;;;;4963558;28;19991;-57
2022/10/28 12:08:04;;;;;;;;;;;;;;;;;;4966066;28;20375;-57
2022/10/28 12:10:39;;;;;;;;;;;;;;;;;;4967197;28;19918;-57
2022/10/28 12:13:12;;;;;;;;;;;;;;;;;;4966897;28;19918;-57
2022/10/28 12:15:56;;;;;;;;;;;;;;;;;;4966052;28;19922;-57
2022/10/28 12:18:26;;;;;;;;;;;;;;;;;;4968652;28;19914;-57
2022/10/28 12:20:54;;;;;;;;;;;;;;;;;;4966450;28;20324;-58
2022/10/28 12:23:21;;;;;;;;;;;;;;;;;;4969443;28;20001;-57
2022/10/28 12:25:49;;;;;;;;;;;;;;;;;;4970771;28;19918;-57
2022/10/28 12:28:27;;;;;;;;;;;;;;;;;;4970506;28;19914;-57
2022/10/28 12:30:52;;;;;;;;;;;;;;;;;;4969346;28;20004;-57
2022/10/28 12:33:17;;;;;;;;;;;;;;;;;;4971064;28;20497;-57
2022/10/28 12:35:54;;;;;;;;;;;;;;;;;;4966962;28;19926;-57
2022/10/28 12:38:29;;;;;;;;;;;;;;;;;;4968035;28;19925;-57
2022/10/28 12:41:00;;;;;;;;;;;;;;;;;;4967753;28;20448;-58
2022/10/28 12:43:28;;;;;;;;;;;;;;;;;;4965521;28;20089;-58
2022/10/28 12:45:55;;;;;;;;;;;;;;;;;;4966371;28;19979;-58
2022/10/28 12:48:37;;;;;;;;;;;;;;;;;;4964592;28;19918;-58
2022/10/28 12:51:13;;;;;;;;;;;;;;;;;;4971065;28;19925;-58
2022/10/28 12:53:43;;;;;;;;;;;;;;;;;;4965778;28;19944;-58
2022/10/28 12:56:12;;;;;;;;;;;;;;;;;;4964785;28;19914;-58
2022/10/28 12:58:53;;;;;;;;;;;;;;;;;;4964949;28;19918;-58
2022/10/28 13:01:20;;;;;;;;;;;;;;;;;;4969731;28;19922;-58
2022/10/28 13:03:48;;;;;;;;;;;;;;;;;;4966368;28;19922;-58
2022/10/28 13:06:32;;;;;;;;;;;;;;;;;;4965024;28;19964;-58
2022/10/28 13:09:23;;;;;;;;;;;;;;;;;;4957997;28;20295;-58
2022/10/28 13:11:51;;;;;;;;;;;;;;;;;;4980777;28;19926;-58
2022/10/28 13:14:25;;;;;;;;;;;;;;;;;;4963649;28;19941;-58
2022/10/28 13:16:51;;;;;;;;;;;;;;;;;;4977831;28;19919;-57
2022/10/28 13:19:22;;;;;;;;;;;;;;;;;;4965925;28;20284;-58
2022/10/28 13:22:16;;;;;;;;;;;;;;;;;;4960963;28;19927;-58
2022/10/28 13:24:48;;;;;;;;;;;;;;;;;;4976409;28;19958;-58
2022/10/28 13:27:14;;;;;;;;;;;;;;;;;;4964514;28;19984;-58
2022/10/28 13:29:40;;;;;;;;;;;;;;;;;;4966971;28;19919;-58
2022/10/28 13:32:05;;;;;;;;;;;;;;;;;;4969174;28;19917;-58
2022/10/28 13:34:32;;;;;;;;;;;;;;;;;;4968115;28;19918;-58
2022/10/28 13:37:00;;;;;;;;;;;;;;;;;;4967347;28;20459;-58
2022/10/28 13:39:30;;;;;;;;;;;;;;;;;;4967320;28;20338;-58
2022/10/28 13:42:14;;;;;;;;;;;;;;;;;;4975023;28;19974;-58
2022/10/28 13:44:52;;;;;;;;;;;;;;;;;;4969027;28;19918;-58
2022/10/28 13:47:32;;;;;;;;;;;;;;;;;;4965914;28;19925;-58
2022/10/28 13:50:11;;;;;;;;;;;;;;;;;;4957192;28;20020;-58
2022/10/28 13:52:43;;;;;;;;;;;;;;;;;;4962136;28;19921;-58
2022/10/28 13:55:17;;;;;;;;;;;;;;;;;;4982244;28;19918;-58
2022/10/28 13:57:44;;;;;;;;;;;;;;;;;;4964328;28;19922;-58
2022/10/28 14:00:16;;;;;;;;;;;;;;;;;;4965786;28;19984;-58
2022/10/28 14:02:56;;;;;;;;;;;;;;;;;;4962395;28;19918;-59
2022/10/28 14:05:42;;;;;;;;;;;;;;;;;;4965170;28;19922;-58
2022/10/28 14:08:17;;;;;;;;;;;;;;;;;;4960547;28;20076;-59
2022/10/28 14:10:54;;;;;;;;;;;;;;;;;;4977282;28;19925;-58
2022/10/28 14:13:21;;;;;;;;;;;;;;;;;;4958225;28;19922;-58
2022/10/28 14:15:49;;;;;;;;;;;;;;;;;;4963163;28;19922;-58
2022/10/28 14:18:16;;;;;;;;;;;;;;;;;;4962203;28;19925;-58
2022/10/28 14:20:47;;;;;;;;;;;;;;;;;;4965262;28;19930;-58
2022/10/28 14:23:21;;;;;;;;;;;;;;;;;;4962012;28;19928;-58
2022/10/28 14:25:49;;;;;;;;;;;;;;;;;;4961479;28;19926;-58
2022/10/28 14:28:26;;;;;;;;;;;;;;;;;;4956897;28;19926;-58
2022/10/28 14:31:07;;;;;;;;;;;;;;;;;;4958914;28;19929;-59
2022/10/28 14:33:53;;;;;;;;;;;;;;;;;;4959568;28;19918;-58
2022/10/28 14:36:18;;;;;;;;;;;;;;;;;;4950482;28;19927;-58
2022/10/28 14:38:49;;;;;;;;;;;;;;;;;;4955333;28;19918;-58
2022/10/28 14:41:24;;;;;;;;;;;;;;;;;;4981750;28;19926;-58
2022/10/28 14:44:07;;;;;;;;;;;;;;;;;;4956894;28;20304;-58
2022/10/28 14:46:48;;;;;;;;;;;;;;;;;;4955827;28;19926;-58
2022/10/28 14:49:23;;;;;;;;;;;;;;;;;;4955098;28;19918;-58
2022/10/28 14:51:49;;;;;;;;;;;;;;;;;;4958465;28;19995;-58
2022/10/28 14:54:15;;;;;;;;;;;;;;;;;;4954382;28;20407;-58
2022/10/28 14:56:41;;;;;;;;;;;;;;;;;;4952029;28;19921;-58
2022/10/28 14:59:12;;;;;;;;;;;;;;;;;;4955453;28;19976;-58
2022/10/28 15:01:47;;;;;;;;;;;;;;;;;;4955724;28;19930;-58
2022/10/28 15:04:12;;;;;;;;;;;;;;;;;;4953686;28;19927;-58
2022/10/28 15:06:38;;;;;;;;;;;;;;;;;;4951692;28;19922;-58
2022/10/28 15:09:05;;;;;;;;;;;;;;;;;;4958228;28;20335;-58
2022/10/28 15:11:31;;;;;;;;;;;;;;;;;;4953117;28;19927;-58
2022/10/28 15:13:59;;;;;;;;;;;;;;;;;;4955356;28;19922;-58
2022/10/28 15:16:24;;;;;;;;;;;;;;;;;;4955803;28;19918;-58
2022/10/28 15:18:51;;;;;;;;;;;;;;;;;;4951392;28;19995;-58
2022/10/28 15:21:17;;;;;;;;;;;;;;;;;;4952662;28;19926;-58
2022/10/28 15:23:43;;;;;;;;;;;;;;;;;;4956599;28;19918;-58
2022/10/28 15:26:10;;;;;;;;;;;;;;;;;;4957777;28;19917;-58
2022/10/28 15:28:35;;;;;;;;;;;;;;;;;;4955214;28;19919;-58
2022/10/28 15:31:00;;;;;;;;;;;;;;;;;;4956716;28;19925;-58
2022/10/28 15:33:30;;;;;;;;;;;;;;;;;;4962566;28;20017;-57
2022/10/28 15:36:07;;;;;;;;;;;;;;;;;;4965199;28;20028;-58
2022/10/28 15:38:38;;;;;;;;;;;;;;;;;;4959519;28;19918;-58
2022/10/28 15:41:37;;;;;;;;;;;;;;;;;;4975785;28;20020;-58
2022/10/28 15:44:02;;;;;;;;;;;;;;;;;;4964508;28;19926;-57
2022/10/28 15:46:29;;;;;;;;;;;;;;;;;;4964637;28;19922;-57
2022/10/28 15:48:56;;;;;;;;;;;;;;;;;;4965853;28;19918;-57
2022/10/28 15:51:21;;;;;;;;;;;;;;;;;;4956236;28;20362;-57
2022/10/28 15:53:48;;;;;;;;;;;;;;;;;;4961278;28;20023;-58
2022/10/28 15:56:13;;;;;;;;;;;;;;;;;;4959269;28;20222;-57
2022/10/28 15:58:42;;;;;;;;;;;;;;;;;;4958717;28;19925;-58
2022/10/28 16:01:26;;;;;;;;;;;;;;;;;;4963968;28;20020;-58
2022/10/28 16:03:52;;;;;;;;;;;;;;;;;;4967581;28;19918;-58
2022/10/28 16:06:22;;;;;;;;;;;;;;;;;;4959458;28;19919;-58
2022/10/28 16:08:57;;;;;;;;;;;;;;;;;;4952711;28;20466;-57
2022/10/28 16:11:22;;;;;;;;;;;;;;;;;;4957785;28;20299;-58
2022/10/28 16:13:48;;;;;;;;;;;;;;;;;;4981180;28;20156;-57
2022/10/28 16:16:34;;;;;;;;;;;;;;;;;;4957169;28;20251;-57
2022/10/28 16:19:07;;;;;;;;;;;;;;;;;;4962384;28;19918;-57
2022/10/28 16:21:32;;;;;;;;;;;;;;;;;;4963612;28;19932;-57
2022/10/28 16:23:58;;;;;;;;;;;;;;;;;;4970345;28;20000;-58
2022/10/28 16:26:26;;;;;;;;;;;;;;;;;;4961909;28;19918;-58
2022/10/28 16:28:51;;;;;;;;;;;;;;;;;;4964252;28;19918;-58
2022/10/28 16:31:18;;;;;;;;;;;;;;;;;;4962240;28;20303;-57
2022/10/28 16:33:43;;;;;;;;;;;;;;;;;;4957099;28;19918;-57
2022/10/28 16:36:09;;;;;;;;;;;;;;;;;;4955126;28;19934;-57
2022/10/28 16:38:34;;;;;;;;;;;;;;;;;;4956611;28;19926;-57
2022/10/28 16:40:59;;;;;;;;;;;;;;;;;;4962013;28;19926;-57
2022/10/28 16:43:26;;;;;;;;;;;;;;;;;;4953567;28;19925;-57
2022/10/28 16:45:53;;;;;;;;;;;;;;;;;;4954009;28;19923;-56
2022/10/28 16:48:19;;;;;;;;;;;;;;;;;;4955329;28;19919;-57
2022/10/28 16:50:51;;;;;;;;;;;;;;;;;;4956707;28;20001;-57
2022/10/28 16:53:17;;;;;;;;;;;;;;;;;;4962849;28;19929;-57
2022/10/28 16:55:42;;;;;;;;;;;;;;;;;;4962464;28;19918;-57
2022/10/28 16:58:08;;;;;;;;;;;;;;;;;;4969506;28;20001;-57